Time;durP1;ratioP1;P1;durP2;ratioP2;P2;SDS_P1;SDS_P2;PMS_P1;PMS_P2;Temp;Humidity;BMP_temperature;BMP_pressure;BME280_temperature;BME280_humidity;BME280_pressure;Samples;Min_cycle;Max_cycle;Signal;HPM_P1;HPM_P2
2022/08/17 00:00:14;;;;;;;20.08;17.98;;;17.80;99.90;;;;;;5034717;28;20487;-66
2022/08/17 00:02:55;;;;;;;19.20;16.58;;;18.20;99.90;;;;;;5016829;28;20045;-64
2022/08/17 00:05:21;;;;;;;23.45;20.67;;;18.20;99.90;;;;;;5017133;28;20116;-65
2022/08/17 00:07:46;;;;;;;24.67;22.02;;;18.30;99.90;;;;;;5034731;28;20488;-65
2022/08/17 00:10:12;;;;;;;27.70;24.17;;;18.10;99.90;;;;;;5034505;28;20095;-64
2022/08/17 00:12:40;;;;;;;30.67;25.05;;;18.40;99.90;;;;;;5034439;28;20033;-65
2022/08/17 00:15:07;;;;;;;32.50;26.08;;;18.30;99.90;;;;;;5034683;28;20041;-64
2022/08/17 00:17:32;;;;;;;27.33;24.27;;;18.10;99.90;;;;;;5016824;28;20069;-64
2022/08/17 00:19:59;;;;;;;31.73;27.10;;;18.40;99.90;;;;;;5034646;28;20079;-65
2022/08/17 00:22:24;;;;;;;25.73;23.00;;;18.40;99.90;;;;;;5016299;28;20033;-65
2022/08/17 00:24:50;;;;;;;23.80;21.35;;;18.40;99.90;;;;;;5015556;28;20087;-66
2022/08/17 00:27:16;;;;;;;30.05;25.35;;;19.40;99.90;;;;;;5015653;28;20056;-65
2022/08/17 00:29:44;;;;;;;35.78;27.92;;;18.20;99.90;;;;;;5015697;28;20177;-65
2022/08/17 00:32:10;;;;;;;38.80;31.08;;;18.30;99.90;;;;;;5034333;28;20052;-64
2022/08/17 00:34:35;;;;;;;37.92;31.08;;;18.50;99.90;;;;;;5016586;28;20072;-64
2022/08/17 00:37:01;;;;;;;36.88;30.60;;;18.10;99.90;;;;;;5016390;28;20073;-65
2022/08/17 00:39:26;;;;;;;33.88;29.10;;;18.60;99.90;;;;;;5016261;28;20049;-65
2022/08/17 00:41:52;;;;;;;42.15;30.90;;;18.50;99.90;;;;;;5016212;28;20034;-65
2022/08/17 00:44:17;;;;;;;37.55;29.90;;;18.60;99.90;;;;;;5034193;28;20526;-64
2022/08/17 00:46:43;;;;;;;33.47;28.13;;;18.50;99.90;;;;;;5016557;28;20492;-64
2022/08/17 00:49:11;;;;;;;37.28;30.77;;;18.50;99.90;;;;;;5016403;28;20033;-64
2022/08/17 00:51:47;;;;;;;31.52;27.30;;;18.70;99.90;;;;;;5016192;28;20487;-66
2022/08/17 00:54:23;;;;;;;33.03;26.45;;;18.60;99.90;;;;;;5003105;28;20052;-65
2022/08/17 00:57:03;;;;;;;36.38;29.58;;;18.60;99.90;;;;;;5033743;28;20159;-64
2022/08/17 00:59:33;;;;;;;37.97;27.85;;;18.70;99.90;;;;;;5016217;28;20403;-65
2022/08/17 01:01:59;;;;;;;29.90;26.55;;;18.60;99.90;;;;;;5002109;28;20549;-65
2022/08/17 01:04:28;;;;;;;30.75;26.75;;;18.60;99.90;;;;;;5011926;28;20132;-65
2022/08/17 01:06:55;;;;;;;31.83;27.00;;;18.50;99.90;;;;;;5012541;28;20068;-65
2022/08/17 01:09:21;;;;;;;27.90;24.33;;;18.70;99.90;;;;;;5012872;28;20052;-64
2022/08/17 01:11:51;;;;;;;28.63;24.60;;;18.80;99.90;;;;;;5013776;28;20117;-64
2022/08/17 01:14:20;;;;;;;25.65;22.00;;;18.50;99.90;;;;;;5013733;28;20033;-65
2022/08/17 01:16:49;;;;;;;29.38;23.35;;;18.60;99.90;;;;;;5013649;28;20100;-67
2022/08/17 01:19:23;;;;;;;66.07;24.02;;;18.40;99.90;;;;;;5012358;28;20034;-65
2022/08/17 01:22:15;;;;;;;238.35;24.02;;;18.50;99.90;;;;;;5012331;28;20050;-64
2022/08/17 01:24:44;;;;;;;22.42;15.45;;;18.00;99.90;;;;;;5012593;28;20038;-64
2022/08/17 01:27:12;;;;;;;109.38;20.92;;;17.90;99.90;;;;;;5012189;28;20038;-65
2022/08/17 01:29:42;;;;;;;19.52;17.55;;;17.90;99.90;;;;;;5011932;28;20045;-65
2022/08/17 01:32:08;;;;;;;19.95;17.73;;;17.90;99.90;;;;;;5012383;28;20049;-64
2022/08/17 01:34:34;;;;;;;22.83;18.60;;;18.00;99.90;;;;;;5012481;28;20073;-64
2022/08/17 01:37:00;;;;;;;21.58;19.27;;;18.00;99.90;;;;;;5012093;28;20500;-64
2022/08/17 01:39:38;;;;;;;23.75;21.35;;;18.10;99.90;;;;;;5012413;28;20042;-65
2022/08/17 01:42:12;;;;;;;19.65;17.65;;;18.30;99.90;;;;;;5011588;28;20369;-65
2022/08/17 01:44:38;;;;;;;17.85;15.65;;;18.10;99.90;;;;;;5012056;28;20041;-64
2022/08/17 01:47:04;;;;;;;17.05;15.27;;;18.00;99.90;;;;;;5011694;28;20087;-64
2022/08/17 01:49:30;;;;;;;14.70;12.95;;;18.00;99.90;;;;;;5012008;28;20548;-64
2022/08/17 01:51:56;;;;;;;65.95;19.60;;;18.10;99.90;;;;;;5011614;28;20125;-65
2022/08/17 01:54:23;;;;;;;228.70;29.42;;;17.80;99.90;;;;;;5012094;28;20428;-65
2022/08/17 01:56:50;;;;;;;77.55;21.67;;;17.90;99.90;;;;;;5011652;28;20054;-65
2022/08/17 01:59:18;;;;;;;170.07;27.38;;;17.90;99.90;;;;;;5013057;28;20045;-65
2022/08/17 02:01:43;;;;;;;73.72;23.90;;;17.80;99.90;;;;;;5011636;28;20050;-64
2022/08/17 02:04:10;;;;;;;89.40;23.10;;;17.80;99.90;;;;;;5011589;28;20049;-64
2022/08/17 02:06:38;;;;;;;38.70;20.48;;;17.50;99.90;;;;;;5011620;28;20455;-65
2022/08/17 02:09:05;;;;;;;59.35;21.70;;;18.90;99.90;;;;;;5012733;28;20041;-64
2022/08/17 02:11:33;;;;;;;138.07;26.50;;;17.30;99.90;;;;;;5011251;28;20057;-65
2022/08/17 02:14:00;;;;;;;35.33;23.70;;;17.30;99.90;;;;;;5011861;28;20519;-65
2022/08/17 02:16:25;;;;;;;25.13;22.60;;;17.20;99.90;;;;;;5011996;28;20045;-64
2022/08/17 02:18:51;;;;;;;24.25;21.70;;;17.50;99.90;;;;;;5012926;28;20038;-64
2022/08/17 02:21:16;;;;;;;25.90;23.27;;;17.60;99.90;;;;;;5011018;28;20077;-65
2022/08/17 02:23:46;;;;;;;24.95;22.48;;;17.50;99.90;;;;;;5011353;28;20042;-64
2022/08/17 02:26:12;;;;;;;36.45;24.23;;;17.60;99.90;;;;;;5011089;28;20057;-64
2022/08/17 02:28:37;;;;;;;24.70;22.10;;;17.40;99.90;;;;;;5011410;28;20042;-64
2022/08/17 02:31:06;;;;;;;27.17;23.83;;;17.70;99.90;;;;;;5012482;28;20485;-64
2022/08/17 02:33:32;;;;;;;26.83;23.58;;;17.60;99.90;;;;;;5011449;28;20077;-64
2022/08/17 02:35:58;;;;;;;26.85;23.23;;;17.70;99.90;;;;;;5012305;28;20084;-65
2022/08/17 02:38:23;;;;;;;114.95;34.33;;;17.80;99.90;;;;;;5008552;28;20041;-65
2022/08/17 02:40:49;;;;;;;40.90;29.48;;;17.70;99.90;;;;;;5001778;28;20038;-65
2022/08/17 02:43:15;;;;;;;28.00;24.92;;;17.70;99.90;;;;;;5011063;28;20117;-64
2022/08/17 02:45:40;;;;;;;27.88;24.50;;;17.70;99.90;;;;;;5012228;28;20103;-64
2022/08/17 02:48:06;;;;;;;28.45;25.40;;;17.70;99.90;;;;;;5011007;28;20041;-64
2022/08/17 02:50:32;;;;;;;72.57;30.80;;;17.70;99.90;;;;;;5011030;28;20034;-65
2022/08/17 02:52:57;;;;;;;37.13;27.42;;;17.90;99.90;;;;;;5011256;28;20099;-64
2022/08/17 02:55:27;;;;;;;59.85;30.25;;;17.80;99.90;;;;;;5012531;28;20527;-64
2022/08/17 02:57:53;;;;;;;37.65;29.88;;;18.00;99.90;;;;;;4999201;28;20036;-64
2022/08/17 03:00:23;;;;;;;56.25;29.67;;;17.80;99.90;;;;;;5011322;28;20113;-64
2022/08/17 03:02:50;;;;;;;35.55;29.98;;;17.80;99.90;;;;;;5011043;28;20542;-65
2022/08/17 03:05:20;;;;;;;34.65;28.27;;;17.90;99.90;;;;;;5031900;28;20072;-65
2022/08/17 03:07:46;;;;;;;53.42;29.80;;;18.00;99.90;;;;;;5031730;28;20068;-65
2022/08/17 03:10:13;;;;;;;31.73;27.48;;;18.20;99.90;;;;;;5014217;28;20065;-64
2022/08/17 03:12:40;;;;;;;30.40;27.13;;;18.00;99.90;;;;;;5014171;28;20452;-64
2022/08/17 03:15:09;;;;;;;32.45;27.48;;;18.00;99.90;;;;;;5031930;28;20065;-64
2022/08/17 03:17:36;;;;;;;54.35;28.80;;;18.10;99.90;;;;;;5014112;28;20046;-65
2022/08/17 03:20:02;;;;;;;42.78;30.08;;;18.10;99.90;;;;;;5017882;28;20683;-64
2022/08/17 03:22:28;;;;;;;33.83;28.67;;;18.00;99.90;;;;;;5031374;28;20553;-64
2022/08/17 03:24:56;;;;;;;31.70;26.05;;;18.10;99.90;;;;;;5014192;28;20060;-64
2022/08/17 03:27:21;;;;;;;34.40;27.48;;;18.30;99.90;;;;;;5016203;28;20044;-64
2022/08/17 03:29:47;;;;;;;36.25;29.30;;;17.90;99.90;;;;;;5017726;28;20037;-64
2022/08/17 03:32:14;;;;;;;37.00;28.35;;;17.90;99.90;;;;;;5017581;28;20045;-65
2022/08/17 03:34:41;;;;;;;30.58;27.33;;;17.80;99.90;;;;;;5017757;28;20053;-64
2022/08/17 03:37:07;;;;;;;30.98;26.58;;;17.90;99.90;;;;;;5017096;28;20138;-65
2022/08/17 03:39:33;;;;;;;28.73;25.20;;;17.80;99.90;;;;;;5017980;28;20041;-64
2022/08/17 03:42:12;;;;;;;30.92;26.48;;;18.00;99.90;;;;;;5035206;28;20112;-64
2022/08/17 03:44:38;;;;;;;32.08;27.83;;;18.10;99.90;;;;;;5017471;28;20091;-65
2022/08/17 03:58:00;;;;;;;49.90;28.77;;;17.90;99.90;;;;;;5034822;28;20041;-65
2022/08/17 04:00:26;;;;;;;30.90;24.42;;;17.90;99.90;;;;;;5035060;28;20038;-64
2022/08/17 04:02:52;;;;;;;26.52;23.55;;;18.00;99.90;;;;;;5034687;28;20045;-64
2022/08/17 04:05:18;;;;;;;26.83;23.85;;;17.90;99.90;;;;;;5035000;28;20060;-64
2022/08/17 04:07:44;;;;;;;26.05;23.52;;;17.80;99.90;;;;;;5034591;28;20476;-65
2022/08/17 04:10:10;;;;;;;24.35;21.88;;;17.90;99.90;;;;;;5017062;28;20037;-65
2022/08/17 04:12:44;;;;;;;28.88;24.02;;;17.80;99.90;;;;;;5016779;28;20095;-65
2022/08/17 04:15:11;;;;;;;;;;;17.90;99.90;;;;;;5035364;28;20116;-64
2022/08/17 04:17:37;;;;;;;40.85;24.55;;;18.00;99.90;;;;;;5016692;28;19956;-64
2022/08/17 04:20:03;;;;;;;50.80;28.02;;;18.00;99.90;;;;;;5034412;28;20051;-64
2022/08/17 04:22:29;;;;;;;102.80;33.95;;;17.80;99.90;;;;;;5034101;28;20555;-65
2022/08/17 04:24:55;;;;;;;115.03;30.98;;;17.90;99.90;;;;;;5016699;28;20029;-65
2022/08/17 04:27:21;;;;;;;50.72;29.58;;;17.70;99.90;;;;;;5034303;28;20510;-64
2022/08/17 04:29:46;;;;;;;36.47;27.52;;;17.80;99.90;;;;;;5016849;28;20033;-64
2022/08/17 04:32:12;;;;;;;54.10;29.90;;;17.60;99.90;;;;;;5016623;28;20056;-64
2022/08/17 04:34:38;;;;;;;33.88;28.90;;;17.60;99.90;;;;;;5034255;28;20041;-65
2022/08/17 04:37:04;;;;;;;39.45;28.45;;;17.70;99.90;;;;;;5016287;28;20053;-65
2022/08/17 04:39:30;;;;;;;47.63;30.42;;;17.90;99.90;;;;;;5015740;28;20041;-65
2022/08/17 04:42:15;;;;;;;41.63;30.67;;;17.70;99.90;;;;;;5033856;28;20514;-64
2022/08/17 04:44:42;;;;;;;39.65;30.15;;;17.80;99.90;;;;;;5016476;28;20045;-64
2022/08/17 04:47:08;;;;;;;37.50;32.50;;;17.90;99.90;;;;;;5016371;28;20084;-65
2022/08/17 04:49:33;;;;;;;41.08;32.45;;;17.70;99.90;;;;;;5033898;28;20061;-65
2022/08/17 04:51:59;;;;;;;34.13;30.42;;;18.20;99.90;;;;;;5033696;28;20046;-65
2022/08/17 04:54:25;;;;;;;36.13;31.77;;;17.90;99.90;;;;;;5016198;28;20090;-64
2022/08/17 04:56:51;;;;;;;37.45;30.85;;;18.00;99.90;;;;;;5016043;28;20124;-65
2022/08/17 04:59:20;;;;;;;38.95;33.50;;;18.00;99.90;;;;;;5034185;28;20123;-64
2022/08/17 05:01:48;;;;;;;43.78;36.42;;;18.00;99.90;;;;;;5033498;28;20041;-65
2022/08/17 05:04:16;;;;;;;39.80;33.67;;;17.90;99.90;;;;;;5015711;28;20080;-64
2022/08/17 05:06:42;;;;;;;43.83;35.90;;;18.10;99.90;;;;;;5015982;28;20042;-64
2022/08/17 05:09:08;;;;;;;48.60;38.65;;;18.40;99.90;;;;;;5015836;28;20380;-64
2022/08/17 05:11:34;;;;;;;52.45;39.70;;;18.50;99.90;;;;;;5015884;28;20037;-64
2022/08/17 05:14:00;;;;;;;51.50;38.45;;;19.70;99.90;;;;;;5015837;28;20095;-65
2022/08/17 05:16:27;;;;;;;50.45;38.83;;;18.20;99.90;;;;;;5033442;28;20445;-65
2022/08/17 05:18:54;;;;;;;48.85;38.03;;;18.50;99.90;;;;;;5015728;28;20038;-65
2022/08/17 05:21:20;;;;;;;49.35;37.45;;;18.00;99.90;;;;;;4999375;28;20518;-64
2022/08/17 05:23:46;;;;;;;51.95;39.70;;;18.20;99.90;;;;;;5033239;28;20487;-64
2022/08/17 05:26:15;;;;;;;46.45;36.78;;;18.20;99.90;;;;;;5015746;28;20033;-65
2022/08/17 05:28:40;;;;;;;51.85;39.35;;;18.30;99.90;;;;;;5015685;28;20060;-64
2022/08/17 05:31:06;;;;;;;47.17;37.25;;;18.50;99.90;;;;;;5015308;28;20045;-65
2022/08/17 05:33:35;;;;;;;48.30;38.40;;;18.40;99.90;;;;;;5015474;28;20080;-65
2022/08/17 05:36:02;;;;;;;58.55;42.30;;;18.50;99.90;;;;;;5032994;28;20029;-65
2022/08/17 05:38:29;;;;;;;61.72;42.42;;;18.50;99.90;;;;;;5015284;28;20103;-64
2022/08/17 05:40:55;;;;;;;53.55;39.47;;;18.50;99.90;;;;;;5032872;28;20041;-64
2022/08/17 05:43:28;;;;;;;52.95;39.13;;;18.30;99.90;;;;;;5015260;28;20108;-64
2022/08/17 05:46:06;;;;;;;51.05;36.97;;;18.40;99.90;;;;;;5015225;28;20144;-65
2022/08/17 05:48:42;;;;;;;56.33;40.58;;;18.40;99.90;;;;;;5015238;28;20153;-64
2022/08/17 05:51:19;;;;;;;49.28;37.28;;;18.60;99.90;;;;;;5032584;28;20573;-65
2022/08/17 05:54:08;;;;;;;58.55;40.33;;;18.40;99.90;;;;;;5014980;28;20049;-64
2022/08/17 05:57:06;;;;;;;56.10;39.65;;;18.60;99.90;;;;;;5032658;28;20045;-65
2022/08/17 05:59:59;;;;;;;51.28;38.45;;;18.60;99.90;;;;;;5021268;28;20038;-64
2022/08/17 06:02:49;;;;;;;47.97;37.30;;;18.70;99.90;;;;;;5014677;28;20041;-65
2022/08/17 06:05:49;;;;;;;45.50;35.00;;;18.60;99.90;;;;;;5015201;28;20053;-64
2022/08/17 06:08:18;;;;;;;48.35;38.30;;;18.50;99.90;;;;;;5005143;28;20052;-64
2022/08/17 06:10:58;;;;;;;47.33;36.65;;;18.70;99.90;;;;;;5014888;28;20045;-65
2022/08/17 06:13:55;;;;;;;44.17;35.83;;;18.60;99.90;;;;;;5032653;28;20077;-64
2022/08/17 06:16:26;;;;;;;46.85;36.28;;;18.70;99.90;;;;;;4985054;28;20057;-64
2022/08/17 06:18:59;;;;;;;44.88;35.63;;;18.60;99.90;;;;;;5032625;28;20041;-65
2022/08/17 06:21:29;;;;;;;44.08;35.17;;;18.70;99.90;;;;;;5018701;28;20041;-65
2022/08/17 06:24:01;;;;;;;47.50;37.65;;;19.00;99.90;;;;;;5032537;28;20046;-64
2022/08/17 06:26:38;;;;;;;44.83;34.10;;;18.80;99.90;;;;;;5032134;28;20748;-65
2022/08/17 06:29:30;;;;;;;45.70;35.80;;;18.70;99.90;;;;;;5032629;28;20365;-65
2022/08/17 06:31:56;;;;;;;49.33;38.35;;;18.70;99.90;;;;;;5016824;28;20050;-64
2022/08/17 06:34:22;;;;;;;46.88;36.83;;;18.90;99.90;;;;;;5027398;28;20050;-64
2022/08/17 06:37:08;;;;;;;50.38;38.38;;;18.90;99.90;;;;;;5032658;28;20498;-65
2022/08/17 06:39:43;;;;;;;50.55;36.60;;;19.00;99.90;;;;;;5032329;28;20048;-65
2022/08/17 06:42:24;;;;;;;42.83;34.42;;;19.00;99.90;;;;;;5014341;28;20044;-65
2022/08/17 06:45:13;;;;;;;40.90;33.83;;;18.90;99.90;;;;;;5032062;28;20490;-65
2022/08/17 06:47:48;;;;;;;48.05;36.20;;;18.90;99.90;;;;;;5014248;28;20057;-64
2022/08/17 06:50:26;;;;;;;40.80;33.53;;;19.20;99.90;;;;;;5014472;28;20040;-65
2022/08/17 06:53:10;;;;;;;45.03;35.03;;;19.20;99.90;;;;;;5014468;28;20087;-65
2022/08/17 06:56:05;;;;;;;42.47;33.93;;;19.10;99.90;;;;;;4997076;28;20058;-65
2022/08/17 06:58:32;;;;;;;44.55;32.95;;;18.90;99.90;;;;;;5014538;28;20042;-64
2022/08/17 07:01:06;;;;;;;43.03;35.05;;;19.10;99.90;;;;;;4979492;28;20492;-65
2022/08/17 07:03:58;;;;;;;46.42;34.58;;;19.30;99.90;;;;;;4998140;28;20432;-64
2022/08/17 07:06:31;;;;;;;46.63;36.10;;;19.20;99.90;;;;;;5016200;28;20165;-64
2022/08/17 07:09:04;;;;;;;49.10;34.90;;;19.10;99.90;;;;;;4998915;28;20400;-65
2022/08/17 07:11:49;;;;;;;50.13;37.15;;;19.30;99.90;;;;;;5022804;28;20069;-65
2022/08/17 07:14:35;;;;;;;51.63;36.75;;;19.10;99.90;;;;;;5031644;28;20040;-64
2022/08/17 07:17:07;;;;;;;48.90;37.08;;;19.20;99.90;;;;;;5016617;28;20063;-64
2022/08/17 07:19:36;;;;;;;50.38;36.78;;;19.20;99.90;;;;;;5017674;28;20037;-67
2022/08/17 07:22:07;;;;;;;52.15;39.47;;;19.40;99.90;;;;;;5017263;28;20037;-65
2022/08/17 07:24:57;;;;;;;46.90;36.92;;;19.30;99.90;;;;;;5018159;28;20091;-65
2022/08/17 07:27:30;;;;;;;45.33;36.42;;;19.30;99.90;;;;;;5035578;28;20030;-65
2022/08/17 07:29:57;;;;;;;54.30;39.08;;;19.30;99.90;;;;;;5006810;28;20116;-65
2022/08/17 07:32:33;;;;;;;49.88;37.88;;;19.30;99.90;;;;;;5017508;28;20060;-65
2022/08/17 07:34:59;;;;;;;54.70;39.38;;;19.10;99.90;;;;;;5017795;28;20051;-64
2022/08/17 07:37:24;;;;;;;47.42;37.63;;;19.20;99.90;;;;;;5035176;28;20112;-65
2022/08/17 07:39:50;;;;;;;54.55;38.15;;;19.40;99.90;;;;;;5017378;28;20041;-66
2022/08/17 07:42:16;;;;;;;49.60;38.78;;;19.30;99.90;;;;;;5017432;28;20034;-65
2022/08/17 07:44:53;;;;;;;52.58;38.60;;;19.30;99.90;;;;;;5034588;28;20133;-65
2022/08/17 07:50:25;;;;;;;52.05;39.33;;;19.30;99.90;;;;;;5016585;28;20041;-65
2022/08/17 07:52:50;;;;;;;59.25;41.33;;;19.30;99.90;;;;;;5034170;28;20037;-65
2022/08/17 07:55:33;;;;;;;55.80;39.85;;;19.40;99.90;;;;;;5016690;28;20148;-65
2022/08/17 07:57:59;;;;;;;54.92;39.88;;;19.10;99.90;;;;;;5006889;28;20518;-64
2022/08/17 08:00:25;;;;;;;56.83;39.95;;;19.10;99.90;;;;;;5030395;28;20022;-65
2022/08/17 08:03:01;;;;;;;63.13;42.00;;;19.30;99.90;;;;;;5034374;28;20053;-65
2022/08/17 08:05:29;;;;;;;60.40;42.83;;;19.30;99.90;;;;;;5034339;28;20057;-65
2022/08/17 08:08:02;;;;;;;67.00;44.20;;;19.20;99.90;;;;;;5016676;28;20128;-65
2022/08/17 08:10:28;;;;;;;63.67;42.90;;;19.30;99.90;;;;;;5016645;28;20037;-65
2022/08/17 08:13:06;;;;;;;55.67;39.85;;;19.40;99.90;;;;;;5015272;28;20045;-64
2022/08/17 08:15:41;;;;;;;57.63;42.10;;;19.40;99.90;;;;;;5034154;28;20033;-65
2022/08/17 08:18:33;;;;;;;63.80;42.53;;;19.20;99.90;;;;;;5032682;28;20458;-65
2022/08/17 08:21:02;;;;;;;59.88;41.67;;;19.30;99.90;;;;;;5032340;28;20080;-65
2022/08/17 08:23:35;;;;;;;62.40;41.83;;;20.50;99.90;;;;;;5033806;28;20048;-64
2022/08/17 08:26:17;;;;;;;63.22;42.72;;;19.60;99.90;;;;;;5016461;28;20128;-65
2022/08/17 08:28:54;;;;;;;59.67;43.13;;;19.50;99.90;;;;;;5016499;28;20091;-65
2022/08/17 08:31:39;;;;;;;64.85;46.55;;;19.70;99.90;;;;;;5033793;28;20065;-65
2022/08/17 08:34:32;;;;;;;59.78;43.60;;;19.60;99.90;;;;;;5033702;28;20037;-65
2022/08/17 08:37:15;;;;;;;64.18;46.20;;;19.60;99.90;;;;;;5031207;28;20095;-65
2022/08/17 08:40:01;;;;;;;67.03;45.08;;;19.80;99.90;;;;;;5015933;28;20081;-65
2022/08/17 08:42:42;;;;;;;60.88;43.65;;;19.80;99.90;;;;;;5032187;28;20040;-65
2022/08/17 08:45:18;;;;;;;58.63;43.90;;;19.90;99.90;;;;;;5015988;28;20037;-66
2022/08/17 08:47:47;;;;;;;55.97;42.13;;;19.60;99.90;;;;;;5015943;28;20099;-65
2022/08/17 08:50:39;;;;;;;54.90;42.83;;;19.90;99.90;;;;;;5015013;28;20099;-65
2022/08/17 08:53:33;;;;;;;57.38;42.75;;;20.20;99.90;;;;;;5015331;28;20135;-65
2022/08/17 08:56:10;;;;;;;52.30;40.47;;;20.00;99.90;;;;;;5015375;28;20080;-65
2022/08/17 08:59:06;;;;;;;53.28;40.50;;;19.90;99.90;;;;;;5015150;28;20087;-65
2022/08/17 09:01:51;;;;;;;53.28;41.03;;;20.00;99.90;;;;;;5015201;28;20042;-65
2022/08/17 09:04:29;;;;;;;51.58;41.17;;;20.00;99.90;;;;;;5015268;28;20050;-65
2022/08/17 09:07:16;;;;;;;48.50;39.88;;;20.20;99.90;;;;;;5015704;28;20404;-65
2022/08/17 09:09:55;;;;;;;54.10;41.70;;;20.30;99.90;;;;;;5013242;28;20034;-65
2022/08/17 09:12:30;;;;;;;50.80;40.60;;;20.10;99.90;;;;;;5032948;28;20044;-65
2022/08/17 09:15:04;;;;;;;45.17;37.60;;;20.10;99.90;;;;;;5015388;28;20037;-65
2022/08/17 09:17:38;;;;;;;48.60;38.85;;;20.20;99.90;;;;;;5015327;28;20042;-65
2022/08/17 09:20:08;;;;;;;43.85;38.60;;;20.20;99.90;;;;;;4996978;28;20037;-65
2022/08/17 09:22:41;;;;;;;45.38;38.13;;;20.20;99.90;;;;;;5032493;28;20396;-65
2022/08/17 09:25:12;;;;;;;47.47;37.08;;;20.40;99.90;;;;;;5014823;28;20402;-65
2022/08/17 09:27:46;;;;;;;42.33;35.20;;;20.50;99.90;;;;;;5015082;28;20045;-65
2022/08/17 09:30:13;;;;;;;38.63;32.60;;;20.30;99.90;;;;;;5015391;28;20041;-65
2022/08/17 09:32:53;;;;;;;34.35;30.05;;;20.20;99.90;;;;;;5032385;28;20041;-65
2022/08/17 09:35:33;;;;;;;32.55;26.23;;;20.50;99.90;;;;;;5032636;28;20045;-67
2022/08/17 09:38:10;;;;;;;28.80;23.88;;;20.30;99.90;;;;;;5014824;28;20049;-65
2022/08/17 09:40:57;;;;;;;31.73;23.65;;;20.80;99.90;;;;;;5014964;28;20037;-65
2022/08/17 09:43:36;;;;;;;26.02;22.52;;;20.40;99.90;;;;;;5014961;28;20045;-65
2022/08/17 09:46:13;;;;;;;33.67;25.80;;;20.80;99.90;;;;;;4998251;28;20073;-65
2022/08/17 09:48:46;;;;;;;29.17;23.00;;;20.80;99.90;;;;;;5032514;28;20459;-65
2022/08/17 09:51:20;;;;;;;26.50;23.67;;;20.70;99.90;;;;;;5014687;28;20127;-65
2022/08/17 09:53:46;;;;;;;27.15;24.13;;;20.70;99.90;;;;;;5014512;28;20037;-65
2022/08/17 09:56:39;;;;;;;28.92;23.80;;;20.80;99.90;;;;;;5032171;28;20048;-65
2022/08/17 09:59:31;;;;;;;29.10;25.00;;;20.70;99.90;;;;;;5032610;28;20041;-66
2022/08/17 10:02:11;;;;;;;29.73;24.40;;;20.80;99.90;;;;;;5014013;28;20048;-66
2022/08/17 10:04:48;;;;;;;29.02;22.83;;;20.80;99.90;;;;;;5014567;28;20053;-65
2022/08/17 10:07:18;;;;;;;24.60;22.10;;;20.90;99.90;;;;;;5031965;28;20046;-66
2022/08/17 10:10:04;;;;;;;25.90;22.25;;;20.80;99.90;;;;;;5014191;28;20128;-65
2022/08/17 10:12:41;;;;;;;24.13;20.88;;;20.80;99.90;;;;;;5009372;28;20052;-66
2022/08/17 10:15:36;;;;;;;25.00;22.30;;;20.50;99.90;;;;;;5032181;28;20049;-65
2022/08/17 10:18:19;;;;;;;25.77;23.08;;;20.50;99.90;;;;;;5014687;28;20134;-65
2022/08/17 10:20:51;;;;;;;28.73;24.17;;;20.80;99.90;;;;;;5031921;28;20045;-65
2022/08/17 10:26:23;;;;;;;29.90;25.83;;;20.80;99.90;;;;;;5014746;28;20076;-65
2022/08/17 10:28:59;;;;;;;28.48;25.27;;;21.10;99.90;;;;;;5014865;28;20041;-65
2022/08/17 10:31:31;;;;;;;34.92;27.35;;;20.90;99.90;;;;;;5014221;28;20069;-65
2022/08/17 10:33:56;;;;;;;35.60;29.23;;;21.10;99.90;;;;;;5014291;28;20083;-65
2022/08/17 10:36:36;;;;;;;35.40;29.23;;;21.10;99.90;;;;;;5013828;28;20092;-65
2022/08/17 10:39:26;;;;;;;41.53;33.13;;;21.10;99.90;;;;;;5014771;28;20034;-65
2022/08/17 10:41:57;;;;;;;42.15;34.78;;;21.30;99.90;;;;;;4997820;28;20087;-65
2022/08/17 10:44:45;;;;;;;41.03;35.85;;;21.40;99.90;;;;;;5011090;28;20060;-65
2022/08/17 10:47:14;;;;;;;45.95;36.67;;;21.30;99.90;;;;;;5006340;28;20041;-64
2022/08/17 10:49:46;;;;;;;41.65;35.15;;;21.60;99.90;;;;;;5010862;28;20538;-65
2022/08/17 10:52:18;;;;;;;47.38;37.63;;;21.30;99.90;;;;;;4993617;28;20037;-66
2022/08/17 10:54:47;;;;;;;43.22;37.22;;;21.50;99.90;;;;;;5010443;28;20045;-65
2022/08/17 10:57:28;;;;;;;39.92;35.00;;;21.60;99.90;;;;;;5010090;28;20129;-65
2022/08/17 10:59:56;;;;;;;40.63;34.35;;;21.80;99.90;;;;;;5010447;28;20103;-65
2022/08/17 11:02:36;;;;;;;41.40;34.83;;;22.10;99.90;;;;;;5027805;28;20037;-65
2022/08/17 11:05:18;;;;;;;41.42;34.10;;;22.10;99.90;;;;;;5027881;28;20057;-66
2022/08/17 11:08:11;;;;;;;37.05;31.35;;;22.10;99.90;;;;;;5028252;28;20040;-65
2022/08/17 11:11:14;;;;;;;34.50;29.10;;;22.30;99.90;;;;;;5010032;28;20037;-65
2022/08/17 11:14:08;;;;;;;40.55;31.10;;;22.20;99.90;;;;;;5008446;28;20038;-65
2022/08/17 11:16:55;;;;;;;35.03;31.00;;;22.70;99.90;;;;;;5027875;28;20044;-65
2022/08/17 11:19:51;;;;;;;35.58;30.02;;;22.60;99.90;;;;;;5027821;28;20283;-64
2022/08/17 11:22:58;;;;;;;40.33;30.95;;;22.30;99.90;;;;;;5027377;28;20045;-65
2022/08/17 11:25:48;;;;;;;37.10;29.83;;;22.60;99.90;;;;;;5027686;28;20049;-66
2022/08/17 11:28:22;;;;;;;37.45;31.02;;;22.70;99.90;;;;;;5009973;28;20103;-65
2022/08/17 11:30:53;;;;;;;38.85;33.42;;;22.60;99.90;;;;;;4994243;28;20125;-65
2022/08/17 11:33:27;;;;;;;42.65;32.03;;;22.80;99.90;;;;;;5010174;28;20092;-65
2022/08/17 11:36:02;;;;;;;41.78;34.20;;;22.60;99.90;;;;;;5009910;28;20388;-65
2022/08/17 11:38:46;;;;;;;44.80;33.90;;;22.60;99.90;;;;;;4993826;28;20059;-65
2022/08/17 11:41:19;;;;;;;38.88;33.70;;;22.60;99.90;;;;;;5009625;28;20045;-65
2022/08/17 11:44:26;;;;;;;40.97;35.60;;;22.50;99.90;;;;;;5027664;28;20033;-65
2022/08/17 11:53:36;;;;;;;37.47;31.70;;;22.50;99.90;;;;;;5012796;28;20045;-65
2022/08/17 11:56:04;;;;;;;30.92;27.33;;;22.80;99.90;;;;;;5031319;28;20045;-65
2022/08/17 11:58:29;;;;;;;29.25;24.05;;;22.80;99.90;;;;;;5013102;28;20049;-65
2022/08/17 12:00:59;;;;;;;27.75;23.13;;;23.60;99.90;;;;;;5013122;28;20526;-65
2022/08/17 12:03:42;;;;;;;31.17;24.30;;;23.10;99.90;;;;;;5009885;28;20068;-66
2022/08/17 12:06:23;;;;;;;33.22;22.30;;;22.80;99.90;;;;;;5011424;28;20050;-65
2022/08/17 12:08:57;;;;;;;26.63;22.38;;;22.50;99.90;;;;;;5010182;28;20054;-65
2022/08/17 12:11:45;;;;;;;26.37;23.30;;;22.80;99.90;;;;;;5008201;28;20053;-66
2022/08/17 12:14:16;;;;;;;27.25;22.75;;;21.50;99.90;;;;;;5009828;28;20389;-65
2022/08/17 12:16:43;;;;;;;26.35;22.42;;;23.60;99.90;;;;;;5009194;28;20037;-65
2022/08/17 12:19:18;;;;;;;27.58;22.52;;;24.20;99.90;;;;;;5009166;28;20073;-66
2022/08/17 12:21:59;;;;;;;26.85;22.23;;;22.70;99.90;;;;;;5007626;28;20464;-66
2022/08/17 12:24:35;;;;;;;27.20;21.48;;;22.70;99.90;;;;;;5009341;28;20120;-65
2022/08/17 12:27:04;;;;;;;24.35;21.08;;;22.50;99.90;;;;;;5009490;28;20034;-66
2022/08/17 12:29:31;;;;;;;26.27;19.80;;;22.50;99.90;;;;;;5009656;28;20052;-66
2022/08/17 12:31:57;;;;;;;30.27;20.98;;;22.70;99.90;;;;;;5009234;28;20099;-66
2022/08/17 12:34:39;;;;;;;24.27;20.70;;;22.60;99.90;;;;;;5009083;28;20407;-65
2022/08/17 12:37:47;;;;;;;25.73;21.70;;;22.60;99.90;;;;;;5009709;28;20041;-66
2022/08/17 12:40:22;;;;;;;27.60;20.65;;;22.60;99.90;;;;;;5009499;28;20056;-67
2022/08/17 12:43:05;;;;;;;23.90;19.45;;;22.40;99.90;;;;;;5010203;28;20415;-66
2022/08/17 12:45:34;;;;;;;22.20;19.63;;;22.30;99.90;;;;;;5008662;28;20476;-65
2022/08/17 12:48:05;;;;;;;24.73;19.83;;;22.60;99.90;;;;;;5007318;28;20534;-65
2022/08/17 12:50:31;;;;;;;22.73;19.52;;;22.40;99.90;;;;;;5009107;28;20037;-66
2022/08/17 12:52:57;;;;;;;22.77;19.85;;;22.60;99.90;;;;;;5008737;28;20141;-65
2022/08/17 12:55:24;;;;;;;23.38;20.05;;;22.80;99.90;;;;;;5008729;28;20127;-65
2022/08/17 12:57:53;;;;;;;22.17;19.63;;;22.40;99.90;;;;;;5010165;28;20120;-65
2022/08/17 13:00:26;;;;;;;23.10;20.30;;;22.50;99.90;;;;;;4998127;28;20050;-65
2022/08/17 13:03:20;;;;;;;22.48;18.05;;;22.50;99.90;;;;;;4991945;28;20053;-65
2022/08/17 13:05:51;;;;;;;23.08;19.08;;;22.60;99.90;;;;;;5012264;28;20171;-66
2022/08/17 13:08:26;;;;;;;25.10;20.02;;;22.40;99.90;;;;;;4993798;28;20664;-66
2022/08/17 13:11:01;;;;;;;23.27;16.98;;;22.50;99.90;;;;;;5029168;28;20049;-66
2022/08/17 13:13:30;;;;;;;20.85;15.70;;;22.40;99.90;;;;;;5012132;28;20121;-66
2022/08/17 13:16:05;;;;;;;18.83;15.07;;;22.60;99.90;;;;;;5029953;28;20033;-65
2022/08/17 13:18:43;;;;;;;19.80;14.85;;;22.30;99.90;;;;;;5010189;28;20340;-65
2022/08/17 13:21:26;;;;;;;17.63;15.35;;;22.90;99.90;;;;;;5011596;28;20381;-65